sensor_id;sensor_type;location;lat;lon;timestamp;pressure;altitude;pressure_sealevel;temperature
71564;BMP180;59391;52.504;13.438;2022-08-18T00:01:47;100711.00;;;30.00
71564;BMP180;59391;52.504;13.438;2022-08-18T00:04:14;100720.00;;;30.00
71564;BMP180;59391;52.504;13.438;2022-08-18T00:06:40;100716.00;;;30.00
71564;BMP180;59391;52.504;13.438;2022-08-18T00:09:09;100717.00;;;29.90
71564;BMP180;59391;52.504;13.438;2022-08-18T00:11:42;100716.00;;;29.90
71564;BMP180;59391;52.504;13.438;2022-08-18T00:14:17;100717.00;;;29.90
71564;BMP180;59391;52.504;13.438;2022-08-18T00:16:44;100714.00;;;29.90
71564;BMP180;59391;52.504;13.438;2022-08-18T00:19:10;100712.00;;;29.90
71564;BMP180;59391;52.504;13.438;2022-08-18T00:21:37;100698.00;;;29.90
71564;BMP180;59391;52.504;13.438;2022-08-18T00:24:04;100714.00;;;29.80
71564;BMP180;59391;52.504;13.438;2022-08-18T00:26:29;100707.00;;;29.80
71564;BMP180;59391;52.504;13.438;2022-08-18T00:28:56;100707.00;;;29.80
71564;BMP180;59391;52.504;13.438;2022-08-18T00:31:21;100704.00;;;29.80
71564;BMP180;59391;52.504;13.438;2022-08-18T00:33:47;100688.00;;;29.80
71564;BMP180;59391;52.504;13.438;2022-08-18T00:36:12;100704.00;;;29.80
71564;BMP180;59391;52.504;13.438;2022-08-18T00:38:38;100702.00;;;29.70
71564;BMP180;59391;52.504;13.438;2022-08-18T00:41:05;100688.00;;;29.70
71564;BMP180;59391;52.504;13.438;2022-08-18T00:43:42;100688.00;;;29.60
71564;BMP180;59391;52.504;13.438;2022-08-18T00:46:16;100694.00;;;29.60
71564;BMP180;59391;52.504;13.438;2022-08-18T00:48:42;100692.00;;;29.50
71564;BMP180;59391;52.504;13.438;2022-08-18T00:51:20;100687.00;;;29.50
71564;BMP180;59391;52.504;13.438;2022-08-18T00:54:08;100655.00;;;29.40
71564;BMP180;59391;52.504;13.438;2022-08-18T00:56:41;100688.00;;;29.40
71564;BMP180;59391;52.504;13.438;2022-08-18T00:59:16;100691.00;;;29.40
71564;BMP180;59391;52.504;13.438;2022-08-18T01:01:48;100686.00;;;29.40
71564;BMP180;59391;52.504;13.438;2022-08-18T01:04:24;100692.00;;;29.30
71564;BMP180;59391;52.504;13.438;2022-08-18T01:06:58;100686.00;;;29.30
71564;BMP180;59391;52.504;13.438;2022-08-18T01:09:25;100688.00;;;29.30
71564;BMP180;59391;52.504;13.438;2022-08-18T01:11:51;100675.00;;;29.30
71564;BMP180;59391;52.504;13.438;2022-08-18T01:14:18;100676.00;;;29.20
71564;BMP180;59391;52.504;13.438;2022-08-18T01:16:48;100678.00;;;29.20
71564;BMP180;59391;52.504;13.438;2022-08-18T01:19:34;100676.00;;;29.20
71564;BMP180;59391;52.504;13.438;2022-08-18T01:22:37;100681.00;;;29.10
71564;BMP180;59391;52.504;13.438;2022-08-18T01:25:07;100681.00;;;29.10
71564;BMP180;59391;52.504;13.438;2022-08-18T01:27:52;100681.00;;;29.10
71564;BMP180;59391;52.504;13.438;2022-08-18T01:30:21;100678.00;;;29.10
71564;BMP180;59391;52.504;13.438;2022-08-18T01:32:52;100689.00;;;29.00
71564;BMP180;59391;52.504;13.438;2022-08-18T01:35:21;100687.00;;;29.00
71564;BMP180;59391;52.504;13.438;2022-08-18T01:37:47;100678.00;;;29.00
71564;BMP180;59391;52.504;13.438;2022-08-18T01:40:16;100657.00;;;29.00
71564;BMP180;59391;52.504;13.438;2022-08-18T01:42:42;100670.00;;;29.00
71564;BMP180;59391;52.504;13.438;2022-08-18T01:45:12;100681.00;;;29.00
71564;BMP180;59391;52.504;13.438;2022-08-18T01:47:39;100676.00;;;29.00
71564;BMP180;59391;52.504;13.438;2022-08-18T01:50:06;100671.00;;;28.90
71564;BMP180;59391;52.504;13.438;2022-08-18T01:52:32;100672.00;;;28.90
71564;BMP180;59391;52.504;13.438;2022-08-18T01:55:00;100669.00;;;28.90
71564;BMP180;59391;52.504;13.438;2022-08-18T01:57:27;100669.00;;;28.90
71564;BMP180;59391;52.504;13.438;2022-08-18T01:59:53;100666.00;;;28.80
71564;BMP180;59391;52.504;13.438;2022-08-18T02:02:25;100659.00;;;28.80
71564;BMP180;59391;52.504;13.438;2022-08-18T02:04:59;100629.00;;;28.80
71564;BMP180;59391;52.504;13.438;2022-08-18T02:07:25;100661.00;;;28.80
71564;BMP180;59391;52.504;13.438;2022-08-18T02:09:51;100654.00;;;28.80
71564;BMP180;59391;52.504;13.438;2022-08-18T02:12:16;100653.00;;;28.70
71564;BMP180;59391;52.504;13.438;2022-08-18T02:14:42;100651.00;;;28.70
71564;BMP180;59391;52.504;13.438;2022-08-18T02:17:10;100643.00;;;28.70
71564;BMP180;59391;52.504;13.438;2022-08-18T02:19:42;100651.00;;;28.70
71564;BMP180;59391;52.504;13.438;2022-08-18T02:22:14;100654.00;;;28.70
71564;BMP180;59391;52.504;13.438;2022-08-18T02:24:40;100652.00;;;28.70
71564;BMP180;59391;52.504;13.438;2022-08-18T02:27:07;100644.00;;;28.70
71564;BMP180;59391;52.504;13.438;2022-08-18T02:29:34;100643.00;;;28.60
71564;BMP180;59391;52.504;13.438;2022-08-18T02:32:00;100638.00;;;28.60
71564;BMP180;59391;52.504;13.438;2022-08-18T02:34:27;100635.00;;;28.60
71564;BMP180;59391;52.504;13.438;2022-08-18T02:36:52;100637.00;;;28.60
71564;BMP180;59391;52.504;13.438;2022-08-18T02:39:18;100642.00;;;28.50
71564;BMP180;59391;52.504;13.438;2022-08-18T02:41:44;100640.00;;;28.50
71564;BMP180;59391;52.504;13.438;2022-08-18T02:44:10;100646.00;;;28.50
71564;BMP180;59391;52.504;13.438;2022-08-18T02:46:37;100641.00;;;28.50
71564;BMP180;59391;52.504;13.438;2022-08-18T02:49:05;100649.00;;;28.40
71564;BMP180;59391;52.504;13.438;2022-08-18T02:51:35;100652.00;;;28.40
71564;BMP180;59391;52.504;13.438;2022-08-18T02:54:02;100637.00;;;28.40
71564;BMP180;59391;52.504;13.438;2022-08-18T02:56:30;100652.00;;;28.40
71564;BMP180;59391;52.504;13.438;2022-08-18T02:59:00;100652.00;;;28.30
71564;BMP180;59391;52.504;13.438;2022-08-18T03:01:37;100639.00;;;28.30
71564;BMP180;59391;52.504;13.438;2022-08-18T03:04:11;100643.00;;;28.30
71564;BMP180;59391;52.504;13.438;2022-08-18T03:06:38;100642.00;;;28.20
71564;BMP180;59391;52.504;13.438;2022-08-18T03:09:07;100640.00;;;28.20
71564;BMP180;59391;52.504;13.438;2022-08-18T03:11:34;100643.00;;;28.20
71564;BMP180;59391;52.504;13.438;2022-08-18T03:14:00;100619.00;;;28.20
71564;BMP180;59391;52.504;13.438;2022-08-18T03:16:25;100637.00;;;28.10
71564;BMP180;59391;52.504;13.438;2022-08-18T03:18:52;100650.00;;;28.10
71564;BMP180;59391;52.504;13.438;2022-08-18T03:21:23;100651.00;;;28.00
71564;BMP180;59391;52.504;13.438;2022-08-18T03:23:50;100646.00;;;28.00
71564;BMP180;59391;52.504;13.438;2022-08-18T03:26:19;100652.00;;;28.00
71564;BMP180;59391;52.504;13.438;2022-08-18T03:28:48;100654.00;;;28.00
71564;BMP180;59391;52.504;13.438;2022-08-18T03:31:17;100645.00;;;27.90
71564;BMP180;59391;52.504;13.438;2022-08-18T03:33:45;100647.00;;;27.90
71564;BMP180;59391;52.504;13.438;2022-08-18T03:36:18;100646.00;;;27.90
71564;BMP180;59391;52.504;13.438;2022-08-18T03:38:45;100654.00;;;27.90
71564;BMP180;59391;52.504;13.438;2022-08-18T03:41:16;100654.00;;;27.80
71564;BMP180;59391;52.504;13.438;2022-08-18T03:43:42;100648.00;;;27.90
71564;BMP180;59391;52.504;13.438;2022-08-18T03:46:11;100637.00;;;27.80
71564;BMP180;59391;52.504;13.438;2022-08-18T03:48:40;100635.00;;;27.80
71564;BMP180;59391;52.504;13.438;2022-08-18T03:51:20;100658.00;;;27.80
71564;BMP180;59391;52.504;13.438;2022-08-18T03:53:48;100658.00;;;27.80
71564;BMP180;59391;52.504;13.438;2022-08-18T03:56:18;100671.00;;;27.80
71564;BMP180;59391;52.504;13.438;2022-08-18T03:58:51;100667.00;;;27.80
71564;BMP180;59391;52.504;13.438;2022-08-18T04:01:21;100659.00;;;27.70
71564;BMP180;59391;52.504;13.438;2022-08-18T04:03:53;100662.00;;;27.70
71564;BMP180;59391;52.504;13.438;2022-08-18T04:06:27;100665.00;;;27.70
71564;BMP180;59391;52.504;13.438;2022-08-18T04:08:56;100670.00;;;27.70
71564;BMP180;59391;52.504;13.438;2022-08-18T04:11:23;100674.00;;;27.60
71564;BMP180;59391;52.504;13.438;2022-08-18T04:13:49;100677.00;;;27.60
71564;BMP180;59391;52.504;13.438;2022-08-18T04:16:15;100685.00;;;27.60
71564;BMP180;59391;52.504;13.438;2022-08-18T04:18:41;100663.00;;;27.60
71564;BMP180;59391;52.504;13.438;2022-08-18T04:21:10;100680.00;;;27.60
71564;BMP180;59391;52.504;13.438;2022-08-18T04:23:39;100678.00;;;27.50
71564;BMP180;59391;52.504;13.438;2022-08-18T04:26:07;100680.00;;;27.60
71564;BMP180;59391;52.504;13.438;2022-08-18T04:28:34;100669.00;;;27.60
71564;BMP180;59391;52.504;13.438;2022-08-18T04:31:09;100681.00;;;27.50
71564;BMP180;59391;52.504;13.438;2022-08-18T04:33:36;100670.00;;;27.60
71564;BMP180;59391;52.504;13.438;2022-08-18T04:36:29;100670.00;;;27.50
71564;BMP180;59391;52.504;13.438;2022-08-18T04:38:56;100667.00;;;27.60
71564;BMP180;59391;52.504;13.438;2022-08-18T04:41:24;100663.00;;;27.60
71564;BMP180;59391;52.504;13.438;2022-08-18T04:43:53;100671.00;;;27.60
71564;BMP180;59391;52.504;13.438;2022-08-18T04:46:19;100655.00;;;27.60
71564;BMP180;59391;52.504;13.438;2022-08-18T04:48:45;100675.00;;;27.60
71564;BMP180;59391;52.504;13.438;2022-08-18T04:51:15;100672.00;;;27.60
71564;BMP180;59391;52.504;13.438;2022-08-18T04:53:42;100673.00;;;27.60
71564;BMP180;59391;52.504;13.438;2022-08-18T04:56:31;100673.00;;;27.60
71564;BMP180;59391;52.504;13.438;2022-08-18T04:59:09;100678.00;;;27.60
71564;BMP180;59391;52.504;13.438;2022-08-18T05:01:47;100680.00;;;27.70
71564;BMP180;59391;52.504;13.438;2022-08-18T05:04:16;100671.00;;;27.70
71564;BMP180;59391;52.504;13.438;2022-08-18T05:06:44;100696.00;;;27.70
71564;BMP180;59391;52.504;13.438;2022-08-18T05:09:13;100676.00;;;27.70
71564;BMP180;59391;52.504;13.438;2022-08-18T05:11:41;100688.00;;;27.70
71564;BMP180;59391;52.504;13.438;2022-08-18T05:14:09;100693.00;;;27.80
71564;BMP180;59391;52.504;13.438;2022-08-18T05:16:36;100694.00;;;27.80
71564;BMP180;59391;52.504;13.438;2022-08-18T05:19:06;100693.00;;;27.80
71564;BMP180;59391;52.504;13.438;2022-08-18T05:21:33;100692.00;;;27.80
71564;BMP180;59391;52.504;13.438;2022-08-18T05:24:02;100689.00;;;27.80
71564;BMP180;59391;52.504;13.438;2022-08-18T05:26:28;100678.00;;;27.80
71564;BMP180;59391;52.504;13.438;2022-08-18T05:28:54;100694.00;;;27.80
71564;BMP180;59391;52.504;13.438;2022-08-18T05:31:24;100694.00;;;27.80
71564;BMP180;59391;52.504;13.438;2022-08-18T05:33:52;100690.00;;;27.90
71564;BMP180;59391;52.504;13.438;2022-08-18T05:39:47;100692.00;;;27.90
71564;BMP180;59391;52.504;13.438;2022-08-18T05:42:21;100696.00;;;27.90
71564;BMP180;59391;52.504;13.438;2022-08-18T05:44:50;100682.00;;;27.90
71564;BMP180;59391;52.504;13.438;2022-08-18T05:47:29;100695.00;;;27.90
71564;BMP180;59391;52.504;13.438;2022-08-18T05:50:08;100699.00;;;28.00
71564;BMP180;59391;52.504;13.438;2022-08-18T05:53:06;100690.00;;;28.00
71564;BMP180;59391;52.504;13.438;2022-08-18T05:55:51;100698.00;;;28.10
71564;BMP180;59391;52.504;13.438;2022-08-18T05:58:45;100690.00;;;28.10
71564;BMP180;59391;52.504;13.438;2022-08-18T06:01:41;100705.00;;;28.10
71564;BMP180;59391;52.504;13.438;2022-08-18T06:04:42;100703.00;;;28.20
71564;BMP180;59391;52.504;13.438;2022-08-18T06:07:18;100704.00;;;28.30
71564;BMP180;59391;52.504;13.438;2022-08-18T06:09:53;100703.00;;;28.40
71564;BMP180;59391;52.504;13.438;2022-08-18T06:12:27;100707.00;;;28.40
71564;BMP180;59391;52.504;13.438;2022-08-18T06:15:12;100709.00;;;28.50
71564;BMP180;59391;52.504;13.438;2022-08-18T06:18:06;100710.00;;;28.60
71564;BMP180;59391;52.504;13.438;2022-08-18T06:20:55;100716.00;;;28.70
71564;BMP180;59391;52.504;13.438;2022-08-18T06:23:57;100730.00;;;28.80
71564;BMP180;59391;52.504;13.438;2022-08-18T06:27:02;100740.00;;;28.80
71564;BMP180;59391;52.504;13.438;2022-08-18T06:30:13;100741.00;;;28.90
71564;BMP180;59391;52.504;13.438;2022-08-18T06:33:10;100743.00;;;29.00
71564;BMP180;59391;52.504;13.438;2022-08-18T06:35:54;100733.00;;;29.00
71564;BMP180;59391;52.504;13.438;2022-08-18T06:41:43;100733.00;;;29.10
71564;BMP180;59391;52.504;13.438;2022-08-18T06:44:29;100727.00;;;29.20
71564;BMP180;59391;52.504;13.438;2022-08-18T06:50:51;100730.00;;;29.40
71564;BMP180;59391;52.504;13.438;2022-08-18T06:53:18;100732.00;;;29.50
71564;BMP180;59391;52.504;13.438;2022-08-18T06:55:49;100727.00;;;29.50
71564;BMP180;59391;52.504;13.438;2022-08-18T07:01:03;100739.00;;;29.70
71564;BMP180;59391;52.504;13.438;2022-08-18T07:08:51;100734.00;;;29.90
71564;BMP180;59391;52.504;13.438;2022-08-18T07:11:26;100741.00;;;30.10
71564;BMP180;59391;52.504;13.438;2022-08-18T07:16:36;100737.00;;;30.30
71564;BMP180;59391;52.504;13.438;2022-08-18T07:19:16;100729.00;;;30.30
71564;BMP180;59391;52.504;13.438;2022-08-18T07:22:10;100725.00;;;30.20
71564;BMP180;59391;52.504;13.438;2022-08-18T07:24:42;100736.00;;;30.40
71564;BMP180;59391;52.504;13.438;2022-08-18T07:27:10;100726.00;;;30.50
71564;BMP180;59391;52.504;13.438;2022-08-18T07:32:39;100725.00;;;30.70
71564;BMP180;59391;52.504;13.438;2022-08-18T07:35:08;100732.00;;;30.70
71564;BMP180;59391;52.504;13.438;2022-08-18T07:37:47;100722.00;;;30.80
71564;BMP180;59391;52.504;13.438;2022-08-18T07:40:38;100737.00;;;30.80
71564;BMP180;59391;52.504;13.438;2022-08-18T07:43:17;100739.00;;;30.80
71564;BMP180;59391;52.504;13.438;2022-08-18T07:45:46;100735.00;;;30.90
71564;BMP180;59391;52.504;13.438;2022-08-18T07:48:29;100739.00;;;30.90
71564;BMP180;59391;52.504;13.438;2022-08-18T07:51:18;100734.00;;;31.00
71564;BMP180;59391;52.504;13.438;2022-08-18T07:53:58;100737.00;;;31.10
71564;BMP180;59391;52.504;13.438;2022-08-18T08:02:56;100746.00;;;31.20
71564;BMP180;59391;52.504;13.438;2022-08-18T08:05:38;100749.00;;;31.30
71564;BMP180;59391;52.504;13.438;2022-08-18T08:14:13;100760.00;;;31.50
71564;BMP180;59391;52.504;13.438;2022-08-18T08:16:49;100762.00;;;31.50
71564;BMP180;59391;52.504;13.438;2022-08-18T08:19:56;100765.00;;;31.50
71564;BMP180;59391;52.504;13.438;2022-08-18T08:23:00;100766.00;;;31.70
71564;BMP180;59391;52.504;13.438;2022-08-18T08:31:28;100770.00;;;31.90
71564;BMP180;59391;52.504;13.438;2022-08-18T08:37:07;100779.00;;;32.10
71564;BMP180;59391;52.504;13.438;2022-08-18T08:39:56;100762.00;;;32.20
71564;BMP180;59391;52.504;13.438;2022-08-18T08:43:06;100735.00;;;32.30
71564;BMP180;59391;52.504;13.438;2022-08-18T08:46:11;100703.00;;;32.40
71564;BMP180;59391;52.504;13.438;2022-08-18T08:52:22;100748.00;;;32.70
71564;BMP180;59391;52.504;13.438;2022-08-18T08:55:02;100704.00;;;32.70
71564;BMP180;59391;52.504;13.438;2022-08-18T08:57:49;100700.00;;;33.00
71564;BMP180;59391;52.504;13.438;2022-08-18T09:00:24;100772.00;;;33.10
71564;BMP180;59391;52.504;13.438;2022-08-18T09:03:05;100784.00;;;33.30
71564;BMP180;59391;52.504;13.438;2022-08-18T09:08:49;100740.00;;;33.60
71564;BMP180;59391;52.504;13.438;2022-08-18T09:14:21;100749.00;;;33.80
71564;BMP180;59391;52.504;13.438;2022-08-18T09:17:26;100752.00;;;34.00
71564;BMP180;59391;52.504;13.438;2022-08-18T09:23:11;100733.00;;;34.70
71564;BMP180;59391;52.504;13.438;2022-08-18T09:25:52;100740.00;;;35.30
71564;BMP180;59391;52.504;13.438;2022-08-18T09:37:19;100729.00;;;38.60
71564;BMP180;59391;52.504;13.438;2022-08-18T09:39:36;100735.00;;;39.20
71564;BMP180;59391;52.504;13.438;2022-08-18T09:42:52;100721.00;;;39.90
71564;BMP180;59391;52.504;13.438;2022-08-18T09:54:05;100726.00;;;40.70
71564;BMP180;59391;52.504;13.438;2022-08-18T10:01:57;100703.00;;;40.80
71564;BMP180;59391;52.504;13.438;2022-08-18T10:04:40;100718.00;;;41.00
71564;BMP180;59391;52.504;13.438;2022-08-18T10:07:27;100721.00;;;41.10
71564;BMP180;59391;52.504;13.438;2022-08-18T10:10:23;100719.00;;;41.20
71564;BMP180;59391;52.504;13.438;2022-08-18T10:16:34;100702.00;;;41.50
71564;BMP180;59391;52.504;13.438;2022-08-18T10:27:33;100706.00;;;41.60
71564;BMP180;59391;52.504;13.438;2022-08-18T10:29:59;100706.00;;;41.40
71564;BMP180;59391;52.504;13.438;2022-08-18T10:32:39;100703.00;;;41.30
71564;BMP180;59391;52.504;13.438;2022-08-18T10:38:25;100714.00;;;42.10
71564;BMP180;59391;52.504;13.438;2022-08-18T10:41:04;100713.00;;;42.60
71564;BMP180;59391;52.504;13.438;2022-08-18T10:44:22;100693.00;;;43.20
71564;BMP180;59391;52.504;13.438;2022-08-18T10:46:58;100675.00;;;43.70
71564;BMP180;59391;52.504;13.438;2022-08-18T10:49:33;100668.00;;;43.60
71564;BMP180;59391;52.504;13.438;2022-08-18T10:55:59;100711.00;;;44.00
71564;BMP180;59391;52.504;13.438;2022-08-18T10:59:19;100705.00;;;44.50
71564;BMP180;59391;52.504;13.438;2022-08-18T11:07:49;100710.00;;;45.20
71564;BMP180;59391;52.504;13.438;2022-08-18T11:10:33;100661.00;;;45.30
71564;BMP180;59391;52.504;13.438;2022-08-18T11:19:28;100655.00;;;45.90
71564;BMP180;59391;52.504;13.438;2022-08-18T11:25:40;100657.00;;;46.70
71564;BMP180;59391;52.504;13.438;2022-08-18T11:28:51;100655.00;;;47.00
71564;BMP180;59391;52.504;13.438;2022-08-18T11:31:40;100693.00;;;47.30
71564;BMP180;59391;52.504;13.438;2022-08-18T11:34:58;100692.00;;;47.50
71564;BMP180;59391;52.504;13.438;2022-08-18T11:38:09;100663.00;;;47.70
71564;BMP180;59391;52.504;13.438;2022-08-18T11:41:09;100684.00;;;47.90
71564;BMP180;59391;52.504;13.438;2022-08-18T11:43:55;100642.00;;;48.30
71564;BMP180;59391;52.504;13.438;2022-08-18T11:46:37;100655.00;;;48.60
71564;BMP180;59391;52.504;13.438;2022-08-18T11:49:52;100681.00;;;48.80
71564;BMP180;59391;52.504;13.438;2022-08-18T11:52:28;100690.00;;;48.90
71564;BMP180;59391;52.504;13.438;2022-08-18T11:58:47;100640.00;;;48.20
71564;BMP180;59391;52.504;13.438;2022-08-18T12:01:49;100646.00;;;48.20
71564;BMP180;59391;52.504;13.438;2022-08-18T12:04:37;100666.00;;;48.40
71564;BMP180;59391;52.504;13.438;2022-08-18T12:07:43;100683.00;;;48.40
71564;BMP180;59391;52.504;13.438;2022-08-18T12:10:30;100673.00;;;48.20
71564;BMP180;59391;52.504;13.438;2022-08-18T12:13:08;100632.00;;;48.00
71564;BMP180;59391;52.504;13.438;2022-08-18T12:16:34;100663.00;;;47.50
71564;BMP180;59391;52.504;13.438;2022-08-18T12:19:19;100677.00;;;47.30
71564;BMP180;59391;52.504;13.438;2022-08-18T12:22:24;100650.00;;;47.30
71564;BMP180;59391;52.504;13.438;2022-08-18T12:25:10;100677.00;;;47.20
71564;BMP180;59391;52.504;13.438;2022-08-18T12:28:14;100653.00;;;46.80
71564;BMP180;59391;52.504;13.438;2022-08-18T12:31:01;100637.00;;;46.60
71564;BMP180;59391;52.504;13.438;2022-08-18T12:33:32;100642.00;;;46.30
71564;BMP180;59391;52.504;13.438;2022-08-18T12:36:08;100671.00;;;46.20
71564;BMP180;59391;52.504;13.438;2022-08-18T12:38:38;100642.00;;;45.80
71564;BMP180;59391;52.504;13.438;2022-08-18T12:41:44;100613.00;;;45.70
71564;BMP180;59391;52.504;13.438;2022-08-18T12:44:21;100602.00;;;45.50
71564;BMP180;59391;52.504;13.438;2022-08-18T12:47:13;100621.00;;;45.40
71564;BMP180;59391;52.504;13.438;2022-08-18T12:50:08;100614.00;;;45.30
71564;BMP180;59391;52.504;13.438;2022-08-18T12:52:56;100635.00;;;45.00
71564;BMP180;59391;52.504;13.438;2022-08-18T12:55:37;100604.00;;;44.70
71564;BMP180;59391;52.504;13.438;2022-08-18T12:58:08;100573.00;;;44.80
71564;BMP180;59391;52.504;13.438;2022-08-18T13:00:47;100592.00;;;44.50
71564;BMP180;59391;52.504;13.438;2022-08-18T13:03:29;100608.00;;;44.20
71564;BMP180;59391;52.504;13.438;2022-08-18T13:06:10;100600.00;;;44.00
71564;BMP180;59391;52.504;13.438;2022-08-18T13:08:45;100560.00;;;44.00
71564;BMP180;59391;52.504;13.438;2022-08-18T13:11:26;100632.00;;;43.60
71564;BMP180;59391;52.504;13.438;2022-08-18T13:13:58;100596.00;;;43.40
71564;BMP180;59391;52.504;13.438;2022-08-18T13:16:37;100577.00;;;43.20
71564;BMP180;59391;52.504;13.438;2022-08-18T13:19:32;100624.00;;;43.00
71564;BMP180;59391;52.504;13.438;2022-08-18T13:25:20;100557.00;;;42.70
71564;BMP180;59391;52.504;13.438;2022-08-18T13:27:51;100574.00;;;42.60
71564;BMP180;59391;52.504;13.438;2022-08-18T13:30:17;100599.00;;;42.30
71564;BMP180;59391;52.504;13.438;2022-08-18T13:32:54;100594.00;;;42.10
71564;BMP180;59391;52.504;13.438;2022-08-18T13:35:36;100553.00;;;41.80
71564;BMP180;59391;52.504;13.438;2022-08-18T13:38:07;100560.00;;;41.60
71564;BMP180;59391;52.504;13.438;2022-08-18T13:40:36;100560.00;;;41.40
71564;BMP180;59391;52.504;13.438;2022-08-18T13:43:02;100570.00;;;41.30
71564;BMP180;59391;52.504;13.438;2022-08-18T13:45:28;100579.00;;;41.20
71564;BMP180;59391;52.504;13.438;2022-08-18T13:48:02;100589.00;;;41.00
71564;BMP180;59391;52.504;13.438;2022-08-18T13:50:36;100572.00;;;40.90
71564;BMP180;59391;52.504;13.438;2022-08-18T13:53:27;100560.00;;;40.70
71564;BMP180;59391;52.504;13.438;2022-08-18T13:58:35;100548.00;;;40.40
71564;BMP180;59391;52.504;13.438;2022-08-18T14:01:52;100573.00;;;40.10
71564;BMP180;59391;52.504;13.438;2022-08-18T14:07:51;100512.00;;;39.80
71564;BMP180;59391;52.504;13.438;2022-08-18T14:10:23;100546.00;;;39.80
71564;BMP180;59391;52.504;13.438;2022-08-18T14:13:00;100531.00;;;39.60
71564;BMP180;59391;52.504;13.438;2022-08-18T14:15:42;100506.00;;;39.40
71564;BMP180;59391;52.504;13.438;2022-08-18T14:18:21;100524.00;;;39.40
71564;BMP180;59391;52.504;13.438;2022-08-18T14:20:52;100543.00;;;39.30
71564;BMP180;59391;52.504;13.438;2022-08-18T14:23:39;100541.00;;;39.20
71564;BMP180;59391;52.504;13.438;2022-08-18T14:28:55;100531.00;;;39.10
71564;BMP180;59391;52.504;13.438;2022-08-18T14:31:22;100540.00;;;39.10
71564;BMP180;59391;52.504;13.438;2022-08-18T14:33:47;100530.00;;;39.10
71564;BMP180;59391;52.504;13.438;2022-08-18T14:36:15;100556.00;;;39.10
71564;BMP180;59391;52.504;13.438;2022-08-18T14:38:41;100559.00;;;39.20
71564;BMP180;59391;52.504;13.438;2022-08-18T14:41:10;100565.00;;;39.10
71564;BMP180;59391;52.504;13.438;2022-08-18T14:43:40;100573.00;;;39.20
71564;BMP180;59391;52.504;13.438;2022-08-18T14:46:08;100573.00;;;39.20
71564;BMP180;59391;52.504;13.438;2022-08-18T14:48:33;100566.00;;;39.20
71564;BMP180;59391;52.504;13.438;2022-08-18T14:51:02;100591.00;;;39.20
71564;BMP180;59391;52.504;13.438;2022-08-18T14:53:31;100549.00;;;39.10
71564;BMP180;59391;52.504;13.438;2022-08-18T14:55:58;100568.00;;;39.10
71564;BMP180;59391;52.504;13.438;2022-08-18T14:58:30;100563.00;;;39.00
71564;BMP180;59391;52.504;13.438;2022-08-18T15:01:08;100536.00;;;38.90
71564;BMP180;59391;52.504;13.438;2022-08-18T15:03:37;100565.00;;;38.70
71564;BMP180;59391;52.504;13.438;2022-08-18T15:06:08;100565.00;;;38.70
71564;BMP180;59391;52.504;13.438;2022-08-18T15:08:38;100590.00;;;38.50
71564;BMP180;59391;52.504;13.438;2022-08-18T15:11:10;100551.00;;;38.30
71564;BMP180;59391;52.504;13.438;2022-08-18T15:13:44;100560.00;;;38.10
71564;BMP180;59391;52.504;13.438;2022-08-18T15:16:12;100586.00;;;38.00
71564;BMP180;59391;52.504;13.438;2022-08-18T15:18:43;100576.00;;;37.80
71564;BMP180;59391;52.504;13.438;2022-08-18T15:21:10;100591.00;;;37.60
71564;BMP180;59391;52.504;13.438;2022-08-18T15:23:54;100600.00;;;37.50
71564;BMP180;59391;52.504;13.438;2022-08-18T15:26:38;100601.00;;;37.30
71564;BMP180;59391;52.504;13.438;2022-08-18T15:29:05;100604.00;;;37.10
71564;BMP180;59391;52.504;13.438;2022-08-18T15:31:34;100597.00;;;37.00
71564;BMP180;59391;52.504;13.438;2022-08-18T15:34:00;100603.00;;;36.90
71564;BMP180;59391;52.504;13.438;2022-08-18T15:36:26;100594.00;;;36.70
71564;BMP180;59391;52.504;13.438;2022-08-18T15:38:52;100588.00;;;36.60
71564;BMP180;59391;52.504;13.438;2022-08-18T15:41:41;100558.00;;;36.40
71564;BMP180;59391;52.504;13.438;2022-08-18T15:44:15;100577.00;;;36.40
71564;BMP180;59391;52.504;13.438;2022-08-18T15:46:44;100582.00;;;36.20
71564;BMP180;59391;52.504;13.438;2022-08-18T15:49:10;100568.00;;;36.20
71564;BMP180;59391;52.504;13.438;2022-08-18T15:51:38;100570.00;;;36.10
71564;BMP180;59391;52.504;13.438;2022-08-18T15:54:05;100580.00;;;36.10
71564;BMP180;59391;52.504;13.438;2022-08-18T15:56:32;100580.00;;;36.00
71564;BMP180;59391;52.504;13.438;2022-08-18T15:58:58;100577.00;;;35.90
71564;BMP180;59391;52.504;13.438;2022-08-18T16:01:34;100579.00;;;35.80
71564;BMP180;59391;52.504;13.438;2022-08-18T16:04:05;100582.00;;;35.70
71564;BMP180;59391;52.504;13.438;2022-08-18T16:06:33;100582.00;;;35.70
71564;BMP180;59391;52.504;13.438;2022-08-18T16:09:03;100557.00;;;35.60
71564;BMP180;59391;52.504;13.438;2022-08-18T16:11:29;100578.00;;;35.60
71564;BMP180;59391;52.504;13.438;2022-08-18T16:13:56;100599.00;;;35.50
71564;BMP180;59391;52.504;13.438;2022-08-18T16:16:23;100611.00;;;35.50
71564;BMP180;59391;52.504;13.438;2022-08-18T16:18:50;100635.00;;;35.40
71564;BMP180;59391;52.504;13.438;2022-08-18T16:21:21;100635.00;;;35.30
71564;BMP180;59391;52.504;13.438;2022-08-18T16:23:51;100646.00;;;35.30
71564;BMP180;59391;52.504;13.438;2022-08-18T16:26:19;100664.00;;;35.20
71564;BMP180;59391;52.504;13.438;2022-08-18T16:28:49;100665.00;;;35.10
71564;BMP180;59391;52.504;13.438;2022-08-18T16:31:19;100675.00;;;35.00
71564;BMP180;59391;52.504;13.438;2022-08-18T16:33:50;100700.00;;;34.70
71564;BMP180;59391;52.504;13.438;2022-08-18T16:36:20;100704.00;;;34.40
71564;BMP180;59391;52.504;13.438;2022-08-18T16:38:47;100723.00;;;34.00
71564;BMP180;59391;52.504;13.438;2022-08-18T16:41:14;100726.00;;;33.50
71564;BMP180;59391;52.504;13.438;2022-08-18T16:43:43;100706.00;;;33.10